sensor_id;sensor_type;location;lat;lon;timestamp;pressure;altitude;pressure_sealevel;temperature;humidity
19596;BME280;9945;46.010;8.946;2023-02-21T00:00:11;97902.53;;;10.63;78.80
19596;BME280;9945;46.010;8.946;2023-02-21T00:02:55;97896.03;;;10.67;79.49
19596;BME280;9945;46.010;8.946;2023-02-21T00:05:40;97893.13;;;10.60;79.37
19596;BME280;9945;46.010;8.946;2023-02-21T00:08:26;97887.31;;;10.57;79.59
19596;BME280;9945;46.010;8.946;2023-02-21T00:11:10;97879.75;;;10.54;79.65
19596;BME280;9945;46.010;8.946;2023-02-21T00:13:54;97878.63;;;10.56;79.22
19596;BME280;9945;46.010;8.946;2023-02-21T00:16:38;97882.78;;;10.59;79.21
19596;BME280;9945;46.010;8.946;2023-02-21T00:19:23;97881.81;;;10.60;78.95
19596;BME280;9945;46.010;8.946;2023-02-21T00:22:07;97876.00;;;10.56;79.10
19596;BME280;9945;46.010;8.946;2023-02-21T00:24:53;97870.47;;;10.50;79.92
19596;BME280;9945;46.010;8.946;2023-02-21T00:27:37;97870.59;;;10.48;79.26
19596;BME280;9945;46.010;8.946;2023-02-21T00:30:22;97870.06;;;10.45;79.56
19596;BME280;9945;46.010;8.946;2023-02-21T00:33:05;97863.28;;;10.42;80.18
19596;BME280;9945;46.010;8.946;2023-02-21T00:35:49;97861.75;;;10.40;79.88
19596;BME280;9945;46.010;8.946;2023-02-21T00:38:36;97857.78;;;10.45;79.68
19596;BME280;9945;46.010;8.946;2023-02-21T00:41:21;97855.56;;;10.41;79.90
19596;BME280;9945;46.010;8.946;2023-02-21T00:44:06;97853.72;;;10.32;81.01
19596;BME280;9945;46.010;8.946;2023-02-21T00:46:50;97853.00;;;10.30;81.08
19596;BME280;9945;46.010;8.946;2023-02-21T00:49:35;97851.09;;;10.32;80.17
19596;BME280;9945;46.010;8.946;2023-02-21T00:52:19;97857.44;;;10.29;80.67
19596;BME280;9945;46.010;8.946;2023-02-21T00:55:04;97846.00;;;10.30;80.23
19596;BME280;9945;46.010;8.946;2023-02-21T00:57:50;97849.00;;;10.26;80.59
19596;BME280;9945;46.010;8.946;2023-02-21T01:00:34;97841.88;;;10.28;80.40
19596;BME280;9945;46.010;8.946;2023-02-21T01:03:18;97839.13;;;10.29;80.09
19596;BME280;9945;46.010;8.946;2023-02-21T01:06:02;97841.34;;;10.34;80.13
19596;BME280;9945;46.010;8.946;2023-02-21T01:08:46;97840.50;;;10.33;80.75
19596;BME280;9945;46.010;8.946;2023-02-21T01:11:31;97842.28;;;10.33;80.47
19596;BME280;9945;46.010;8.946;2023-02-21T01:14:17;97832.22;;;10.28;80.12
19596;BME280;9945;46.010;8.946;2023-02-21T01:17:01;97833.19;;;10.27;79.82
19596;BME280;9945;46.010;8.946;2023-02-21T01:19:46;97839.25;;;10.28;80.44
19596;BME280;9945;46.010;8.946;2023-02-21T01:22:30;97839.41;;;10.15;81.53
19596;BME280;9945;46.010;8.946;2023-02-21T01:25:16;97836.38;;;10.10;82.31
19596;BME280;9945;46.010;8.946;2023-02-21T01:28:00;97831.44;;;10.16;81.03
19596;BME280;9945;46.010;8.946;2023-02-21T01:30:46;97832.41;;;10.15;81.75
19596;BME280;9945;46.010;8.946;2023-02-21T01:33:34;97814.34;;;10.12;81.20
19596;BME280;9945;46.010;8.946;2023-02-21T01:36:19;97812.28;;;10.16;81.41
19596;BME280;9945;46.010;8.946;2023-02-21T01:39:03;97812.81;;;10.10;81.50
19596;BME280;9945;46.010;8.946;2023-02-21T01:41:47;97811.03;;;10.10;80.90
19596;BME280;9945;46.010;8.946;2023-02-21T01:44:37;97814.22;;;10.14;81.42
19596;BME280;9945;46.010;8.946;2023-02-21T01:47:24;97810.91;;;10.12;81.47
19596;BME280;9945;46.010;8.946;2023-02-21T01:50:13;97804.03;;;10.11;81.50
19596;BME280;9945;46.010;8.946;2023-02-21T01:53:02;97800.69;;;10.09;81.80
19596;BME280;9945;46.010;8.946;2023-02-21T01:55:47;97800.66;;;9.99;81.69
19596;BME280;9945;46.010;8.946;2023-02-21T01:58:32;97798.16;;;9.98;82.33
19596;BME280;9945;46.010;8.946;2023-02-21T02:01:24;97799.81;;;9.99;82.29
19596;BME280;9945;46.010;8.946;2023-02-21T02:04:12;97805.63;;;10.02;81.05
19596;BME280;9945;46.010;8.946;2023-02-21T02:06:56;97794.16;;;9.94;81.79
19596;BME280;9945;46.010;8.946;2023-02-21T02:09:40;97797.84;;;9.91;81.78
19596;BME280;9945;46.010;8.946;2023-02-21T02:12:45;97798.28;;;9.96;81.56
19596;BME280;9945;46.010;8.946;2023-02-21T02:15:35;97802.69;;;9.96;82.59
19596;BME280;9945;46.010;8.946;2023-02-21T02:18:26;97797.19;;;9.99;81.09
19596;BME280;9945;46.010;8.946;2023-02-21T02:21:31;97805.16;;;9.97;81.14
19596;BME280;9945;46.010;8.946;2023-02-21T02:24:23;97797.03;;;9.91;82.26
19596;BME280;9945;46.010;8.946;2023-02-21T02:27:17;97792.03;;;9.87;82.33
19596;BME280;9945;46.010;8.946;2023-02-21T02:35:49;97796.19;;;9.90;82.21
19596;BME280;9945;46.010;8.946;2023-02-21T02:38:25;97791.66;;;9.71;82.65
19596;BME280;9945;46.010;8.946;2023-02-21T02:40:58;97791.59;;;9.82;80.61
19596;BME280;9945;46.010;8.946;2023-02-21T02:43:30;97792.31;;;9.84;82.10
19596;BME280;9945;46.010;8.946;2023-02-21T02:46:01;97786.25;;;9.84;81.72
19596;BME280;9945;46.010;8.946;2023-02-21T02:48:34;97793.38;;;9.82;81.18
19596;BME280;9945;46.010;8.946;2023-02-21T02:51:06;97791.03;;;9.79;81.59
19596;BME280;9945;46.010;8.946;2023-02-21T02:53:34;97802.41;;;9.68;82.94
19596;BME280;9945;46.010;8.946;2023-02-21T02:56:03;97800.44;;;9.61;81.65
19596;BME280;9945;46.010;8.946;2023-02-21T02:58:32;97799.66;;;9.49;81.79
19596;BME280;9945;46.010;8.946;2023-02-21T03:01:12;97795.13;;;9.51;82.73
19596;BME280;9945;46.010;8.946;2023-02-21T03:06:51;97799.13;;;9.55;82.33
19596;BME280;9945;46.010;8.946;2023-02-21T03:09:24;97796.41;;;9.57;82.88
19596;BME280;9945;46.010;8.946;2023-02-21T03:11:59;97793.66;;;9.58;82.59
19596;BME280;9945;46.010;8.946;2023-02-21T03:14:31;97792.25;;;9.54;82.13
19596;BME280;9945;46.010;8.946;2023-02-21T03:17:02;97796.63;;;9.54;82.67
19596;BME280;9945;46.010;8.946;2023-02-21T03:19:36;97790.72;;;9.52;81.96
19596;BME280;9945;46.010;8.946;2023-02-21T03:22:07;97787.91;;;9.43;83.00
19596;BME280;9945;46.010;8.946;2023-02-21T03:24:37;97786.38;;;9.41;83.12
19596;BME280;9945;46.010;8.946;2023-02-21T03:27:07;97776.06;;;9.39;82.85
19596;BME280;9945;46.010;8.946;2023-02-21T03:29:36;97776.88;;;9.40;83.36
19596;BME280;9945;46.010;8.946;2023-02-21T03:32:08;97767.97;;;9.42;83.46
19596;BME280;9945;46.010;8.946;2023-02-21T03:34:35;97768.34;;;9.38;83.70
19596;BME280;9945;46.010;8.946;2023-02-21T03:37:03;97763.38;;;9.35;83.91
19596;BME280;9945;46.010;8.946;2023-02-21T03:39:32;97764.88;;;9.37;82.89
19596;BME280;9945;46.010;8.946;2023-02-21T03:41:59;97758.34;;;9.43;83.80
19596;BME280;9945;46.010;8.946;2023-02-21T03:44:26;97760.81;;;9.44;83.09
19596;BME280;9945;46.010;8.946;2023-02-21T03:46:53;97757.25;;;9.45;83.19
19596;BME280;9945;46.010;8.946;2023-02-21T03:49:19;97758.66;;;9.49;82.07
19596;BME280;9945;46.010;8.946;2023-02-21T03:51:46;97757.13;;;9.47;82.64
19596;BME280;9945;46.010;8.946;2023-02-21T03:54:13;97758.06;;;9.46;81.99
19596;BME280;9945;46.010;8.946;2023-02-21T03:56:41;97762.88;;;9.41;83.56
19596;BME280;9945;46.010;8.946;2023-02-21T03:59:08;97757.50;;;9.22;82.67
19596;BME280;9945;46.010;8.946;2023-02-21T04:01:35;97759.84;;;9.25;84.34
19596;BME280;9945;46.010;8.946;2023-02-21T04:04:02;97756.41;;;9.24;83.41
19596;BME280;9945;46.010;8.946;2023-02-21T04:06:28;97755.00;;;9.20;83.00
19596;BME280;9945;46.010;8.946;2023-02-21T04:08:55;97762.00;;;9.20;83.93
19596;BME280;9945;46.010;8.946;2023-02-21T04:11:22;97763.31;;;9.25;83.98
19596;BME280;9945;46.010;8.946;2023-02-21T04:13:50;97762.84;;;9.20;83.38
19596;BME280;9945;46.010;8.946;2023-02-21T04:16:17;97761.16;;;9.19;84.24
19596;BME280;9945;46.010;8.946;2023-02-21T04:18:44;97775.66;;;9.23;84.15
19596;BME280;9945;46.010;8.946;2023-02-21T04:21:15;97772.72;;;9.17;84.63
19596;BME280;9945;46.010;8.946;2023-02-21T04:23:42;97774.00;;;9.22;85.28
19596;BME280;9945;46.010;8.946;2023-02-21T04:26:09;97779.81;;;9.26;85.16
19596;BME280;9945;46.010;8.946;2023-02-21T04:28:35;97777.00;;;9.18;85.93
19596;BME280;9945;46.010;8.946;2023-02-21T04:31:04;97774.00;;;9.22;84.30
19596;BME280;9945;46.010;8.946;2023-02-21T04:33:31;97769.22;;;9.27;84.58
19596;BME280;9945;46.010;8.946;2023-02-21T04:35:58;97763.19;;;9.27;83.50
19596;BME280;9945;46.010;8.946;2023-02-21T04:38:24;97763.53;;;9.22;84.14
19596;BME280;9945;46.010;8.946;2023-02-21T04:40:51;97766.47;;;9.29;84.42
19596;BME280;9945;46.010;8.946;2023-02-21T04:43:18;97765.97;;;9.14;84.76
19596;BME280;9945;46.010;8.946;2023-02-21T04:45:46;97756.41;;;9.24;83.05
19596;BME280;9945;46.010;8.946;2023-02-21T04:48:14;97756.16;;;9.27;83.44
19596;BME280;9945;46.010;8.946;2023-02-21T04:50:41;97759.97;;;9.23;84.12
19596;BME280;9945;46.010;8.946;2023-02-21T04:53:08;97758.06;;;9.25;83.84
19596;BME280;9945;46.010;8.946;2023-02-21T04:55:35;97760.09;;;9.22;84.35
19596;BME280;9945;46.010;8.946;2023-02-21T04:58:02;97769.28;;;9.16;84.96
19596;BME280;9945;46.010;8.946;2023-02-21T05:00:29;97757.88;;;9.17;83.52
19596;BME280;9945;46.010;8.946;2023-02-21T05:02:56;97753.28;;;9.09;85.01
19596;BME280;9945;46.010;8.946;2023-02-21T05:05:24;97744.34;;;9.12;83.89
19596;BME280;9945;46.010;8.946;2023-02-21T05:07:51;97741.28;;;9.07;83.71
19596;BME280;9945;46.010;8.946;2023-02-21T05:10:18;97743.66;;;9.10;84.67
19596;BME280;9945;46.010;8.946;2023-02-21T05:12:45;97745.44;;;9.09;83.78
19596;BME280;9945;46.010;8.946;2023-02-21T05:15:12;97741.06;;;9.10;84.10
19596;BME280;9945;46.010;8.946;2023-02-21T05:17:40;97740.66;;;9.15;83.09
19596;BME280;9945;46.010;8.946;2023-02-21T05:20:07;97743.41;;;9.13;85.00
19596;BME280;9945;46.010;8.946;2023-02-21T05:22:37;97738.16;;;9.13;83.17
19596;BME280;9945;46.010;8.946;2023-02-21T05:25:05;97735.69;;;9.11;84.52
19596;BME280;9945;46.010;8.946;2023-02-21T05:27:33;97737.63;;;9.09;83.46
19596;BME280;9945;46.010;8.946;2023-02-21T05:29:59;97738.69;;;9.07;83.76
19596;BME280;9945;46.010;8.946;2023-02-21T05:32:26;97735.03;;;8.98;85.23
19596;BME280;9945;46.010;8.946;2023-02-21T05:34:54;97736.94;;;8.96;84.05
19596;BME280;9945;46.010;8.946;2023-02-21T05:37:21;97733.50;;;8.96;84.62
19596;BME280;9945;46.010;8.946;2023-02-21T05:39:49;97729.09;;;8.96;84.46
19596;BME280;9945;46.010;8.946;2023-02-21T05:42:16;97734.44;;;8.95;84.37
19596;BME280;9945;46.010;8.946;2023-02-21T05:44:44;97743.38;;;8.92;85.46
19596;BME280;9945;46.010;8.946;2023-02-21T05:47:11;97737.19;;;8.93;85.35
19596;BME280;9945;46.010;8.946;2023-02-21T05:49:38;97739.22;;;8.90;84.33
19596;BME280;9945;46.010;8.946;2023-02-21T05:52:05;97740.63;;;8.62;88.58
19596;BME280;9945;46.010;8.946;2023-02-21T05:54:32;97739.84;;;8.39;89.82
19596;BME280;9945;46.010;8.946;2023-02-21T05:57:00;97747.50;;;8.63;87.99
19596;BME280;9945;46.010;8.946;2023-02-21T05:59:27;97754.22;;;8.77;87.71
19596;BME280;9945;46.010;8.946;2023-02-21T06:01:54;97748.88;;;8.78;86.47
19596;BME280;9945;46.010;8.946;2023-02-21T06:04:21;97749.19;;;8.85;86.50
19596;BME280;9945;46.010;8.946;2023-02-21T06:06:48;97754.69;;;8.82;85.95
19596;BME280;9945;46.010;8.946;2023-02-21T06:09:16;97751.97;;;8.83;86.55
19596;BME280;9945;46.010;8.946;2023-02-21T06:11:43;97753.94;;;8.91;85.57
19596;BME280;9945;46.010;8.946;2023-02-21T06:14:15;97751.69;;;8.86;84.69
19596;BME280;9945;46.010;8.946;2023-02-21T06:16:43;97758.13;;;8.82;86.42
19596;BME280;9945;46.010;8.946;2023-02-21T06:19:11;97753.22;;;8.89;86.57
19596;BME280;9945;46.010;8.946;2023-02-21T06:21:40;97753.00;;;8.92;86.25
19596;BME280;9945;46.010;8.946;2023-02-21T06:24:08;97757.59;;;8.99;87.83
19596;BME280;9945;46.010;8.946;2023-02-21T06:26:35;97753.44;;;8.97;87.58
19596;BME280;9945;46.010;8.946;2023-02-21T06:29:03;97758.63;;;8.76;90.30
19596;BME280;9945;46.010;8.946;2023-02-21T06:31:31;97758.56;;;8.87;87.52
19596;BME280;9945;46.010;8.946;2023-02-21T06:33:58;97758.22;;;8.92;88.59
19596;BME280;9945;46.010;8.946;2023-02-21T06:36:26;97754.50;;;8.94;87.64
19596;BME280;9945;46.010;8.946;2023-02-21T06:38:56;97758.06;;;8.93;89.23
19596;BME280;9945;46.010;8.946;2023-02-21T06:41:24;97756.16;;;8.95;89.02
19596;BME280;9945;46.010;8.946;2023-02-21T06:43:52;97749.03;;;8.97;88.82
19596;BME280;9945;46.010;8.946;2023-02-21T06:46:21;97758.06;;;8.93;87.61
19596;BME280;9945;46.010;8.946;2023-02-21T06:48:50;97757.91;;;9.06;87.26
19596;BME280;9945;46.010;8.946;2023-02-21T06:51:18;97758.53;;;8.98;88.15
19596;BME280;9945;46.010;8.946;2023-02-21T06:53:49;97770.91;;;8.85;87.61
19596;BME280;9945;46.010;8.946;2023-02-21T06:56:16;97767.09;;;9.00;87.37
19596;BME280;9945;46.010;8.946;2023-02-21T06:58:43;97762.53;;;9.02;85.83
19596;BME280;9945;46.010;8.946;2023-02-21T07:01:09;97771.63;;;9.19;84.16
19596;BME280;9945;46.010;8.946;2023-02-21T07:03:38;97773.47;;;9.28;82.89
19596;BME280;9945;46.010;8.946;2023-02-21T07:06:06;97769.75;;;9.42;82.65
19596;BME280;9945;46.010;8.946;2023-02-21T07:08:33;97775.53;;;9.45;82.32
19596;BME280;9945;46.010;8.946;2023-02-21T07:11:00;97785.63;;;9.50;83.49
19596;BME280;9945;46.010;8.946;2023-02-21T07:13:26;97786.19;;;9.54;81.86
19596;BME280;9945;46.010;8.946;2023-02-21T07:15:53;97791.09;;;9.47;83.61
19596;BME280;9945;46.010;8.946;2023-02-21T07:18:20;97790.84;;;9.50;82.90
19596;BME280;9945;46.010;8.946;2023-02-21T07:20:47;97778.78;;;9.38;83.25
19596;BME280;9945;46.010;8.946;2023-02-21T07:23:16;97788.66;;;9.55;82.44
19596;BME280;9945;46.010;8.946;2023-02-21T07:25:44;97786.00;;;9.66;83.11
19596;BME280;9945;46.010;8.946;2023-02-21T07:28:11;97791.66;;;9.71;82.89
19596;BME280;9945;46.010;8.946;2023-02-21T07:30:38;97797.94;;;9.59;83.32
19596;BME280;9945;46.010;8.946;2023-02-21T07:33:05;97798.38;;;9.43;84.26
19596;BME280;9945;46.010;8.946;2023-02-21T07:35:31;97798.41;;;9.53;83.47
19596;BME280;9945;46.010;8.946;2023-02-21T07:37:59;97799.63;;;9.70;84.50
19596;BME280;9945;46.010;8.946;2023-02-21T07:40:27;97798.84;;;9.69;84.09
19596;BME280;9945;46.010;8.946;2023-02-21T07:42:54;97798.56;;;9.72;83.13
19596;BME280;9945;46.010;8.946;2023-02-21T07:45:21;97799.84;;;9.78;82.47
19596;BME280;9945;46.010;8.946;2023-02-21T07:47:47;97793.81;;;9.87;81.52
19596;BME280;9945;46.010;8.946;2023-02-21T07:50:15;97796.31;;;9.88;81.73
19596;BME280;9945;46.010;8.946;2023-02-21T07:52:42;97799.50;;;9.92;81.76
19596;BME280;9945;46.010;8.946;2023-02-21T07:55:10;97797.59;;;9.94;81.83
19596;BME280;9945;46.010;8.946;2023-02-21T07:57:39;97801.47;;;10.00;82.21
19596;BME280;9945;46.010;8.946;2023-02-21T08:00:07;97791.50;;;10.14;82.00
19596;BME280;9945;46.010;8.946;2023-02-21T08:02:34;97790.63;;;10.25;83.24
19596;BME280;9945;46.010;8.946;2023-02-21T08:05:04;97789.41;;;10.29;83.08
19596;BME280;9945;46.010;8.946;2023-02-21T08:07:31;97791.16;;;10.19;83.76
19596;BME280;9945;46.010;8.946;2023-02-21T08:09:58;97791.06;;;10.09;84.13
19596;BME280;9945;46.010;8.946;2023-02-21T08:12:25;97793.47;;;10.22;83.74
19596;BME280;9945;46.010;8.946;2023-02-21T08:14:53;97790.41;;;10.17;84.05
19596;BME280;9945;46.010;8.946;2023-02-21T08:17:20;97788.59;;;10.38;83.95
19596;BME280;9945;46.010;8.946;2023-02-21T08:19:46;97787.13;;;10.45;83.26
19596;BME280;9945;46.010;8.946;2023-02-21T08:22:13;97783.66;;;10.45;82.95
19596;BME280;9945;46.010;8.946;2023-02-21T08:24:40;97792.22;;;10.56;83.32
19596;BME280;9945;46.010;8.946;2023-02-21T08:27:07;97789.50;;;10.68;83.44
19596;BME280;9945;46.010;8.946;2023-02-21T08:29:34;97775.63;;;10.77;82.46
19596;BME280;9945;46.010;8.946;2023-02-21T08:32:02;97782.50;;;10.78;83.00
19596;BME280;9945;46.010;8.946;2023-02-21T08:34:29;97782.38;;;10.79;83.26
19596;BME280;9945;46.010;8.946;2023-02-21T08:36:56;97780.59;;;10.89;83.58
19596;BME280;9945;46.010;8.946;2023-02-21T08:39:23;97782.25;;;11.00;82.33
19596;BME280;9945;46.010;8.946;2023-02-21T08:41:49;97782.53;;;11.16;81.40
19596;BME280;9945;46.010;8.946;2023-02-21T08:44:17;97778.56;;;11.22;82.33
19596;BME280;9945;46.010;8.946;2023-02-21T08:46:46;97780.31;;;11.41;81.36
19596;BME280;9945;46.010;8.946;2023-02-21T08:49:15;97774.94;;;11.52;81.46
19596;BME280;9945;46.010;8.946;2023-02-21T08:51:42;97777.97;;;11.76;80.23
19596;BME280;9945;46.010;8.946;2023-02-21T08:54:09;97776.53;;;12.01;78.67
19596;BME280;9945;46.010;8.946;2023-02-21T08:56:36;97768.34;;;12.13;78.71
19596;BME280;9945;46.010;8.946;2023-02-21T08:59:03;97769.28;;;12.22;78.41
19596;BME280;9945;46.010;8.946;2023-02-21T09:01:31;97767.94;;;12.45;75.46
19596;BME280;9945;46.010;8.946;2023-02-21T09:03:59;97764.75;;;12.69;76.25
19596;BME280;9945;46.010;8.946;2023-02-21T09:06:27;97763.44;;;12.83;74.53
19596;BME280;9945;46.010;8.946;2023-02-21T09:08:54;97767.03;;;13.53;73.45
19596;BME280;9945;46.010;8.946;2023-02-21T09:11:21;97763.16;;;13.83;70.44
19596;BME280;9945;46.010;8.946;2023-02-21T09:13:48;97766.03;;;14.23;69.16
19596;BME280;9945;46.010;8.946;2023-02-21T09:16:15;97762.59;;;14.65;66.46
19596;BME280;9945;46.010;8.946;2023-02-21T09:18:41;97756.81;;;15.28;64.00
19596;BME280;9945;46.010;8.946;2023-02-21T09:21:08;97752.91;;;15.64;62.00
19596;BME280;9945;46.010;8.946;2023-02-21T09:23:36;97756.44;;;16.12;58.99
19596;BME280;9945;46.010;8.946;2023-02-21T09:26:03;97753.50;;;16.46;58.64
19596;BME280;9945;46.010;8.946;2023-02-21T09:28:30;97751.28;;;16.74;56.92
19596;BME280;9945;46.010;8.946;2023-02-21T09:30:57;97750.09;;;16.37;57.78
19596;BME280;9945;46.010;8.946;2023-02-21T09:33:24;97746.06;;;17.11;55.31
19596;BME280;9945;46.010;8.946;2023-02-21T09:35:51;97752.41;;;17.93;53.13
19596;BME280;9945;46.010;8.946;2023-02-21T09:38:18;97752.13;;;18.32;51.67
19596;BME280;9945;46.010;8.946;2023-02-21T09:40:48;97748.59;;;19.05;49.34
19596;BME280;9945;46.010;8.946;2023-02-21T09:43:19;97750.28;;;19.77;46.68
19596;BME280;9945;46.010;8.946;2023-02-21T09:45:47;97746.72;;;20.53;44.95
19596;BME280;9945;46.010;8.946;2023-02-21T09:48:18;97745.34;;;21.31;42.10
19596;BME280;9945;46.010;8.946;2023-02-21T09:50:48;97745.78;;;22.27;40.57
19596;BME280;9945;46.010;8.946;2023-02-21T09:53:19;97734.91;;;23.24;38.90
19596;BME280;9945;46.010;8.946;2023-02-21T09:55:50;97745.97;;;24.09;37.32
19596;BME280;9945;46.010;8.946;2023-02-21T09:58:19;97738.88;;;24.76;35.10
19596;BME280;9945;46.010;8.946;2023-02-21T10:00:46;97733.22;;;25.74;33.80
19596;BME280;9945;46.010;8.946;2023-02-21T10:03:29;97738.84;;;26.54;32.08
19596;BME280;9945;46.010;8.946;2023-02-21T10:06:07;97727.88;;;27.40;31.34
19596;BME280;9945;46.010;8.946;2023-02-21T10:08:43;97727.19;;;27.45;29.87
19596;BME280;9945;46.010;8.946;2023-02-21T10:11:36;97723.09;;;28.26;29.03
19596;BME280;9945;46.010;8.946;2023-02-21T10:14:15;97720.53;;;27.81;29.32
19596;BME280;9945;46.010;8.946;2023-02-21T10:16:49;97722.72;;;28.17;29.04
19596;BME280;9945;46.010;8.946;2023-02-21T10:19:21;97714.34;;;27.64;28.65
19596;BME280;9945;46.010;8.946;2023-02-21T10:21:54;97711.78;;;28.24;28.81
19596;BME280;9945;46.010;8.946;2023-02-21T10:24:24;97704.44;;;28.80;27.29
19596;BME280;9945;46.010;8.946;2023-02-21T10:26:58;97697.78;;;27.89;29.16
19596;BME280;9945;46.010;8.946;2023-02-21T10:29:34;97702.53;;;28.80;27.88
19596;BME280;9945;46.010;8.946;2023-02-21T10:32:03;97693.00;;;29.21;28.13
19596;BME280;9945;46.010;8.946;2023-02-21T10:34:32;97698.25;;;28.63;29.14
19596;BME280;9945;46.010;8.946;2023-02-21T10:37:03;97695.53;;;29.06;27.24
19596;BME280;9945;46.010;8.946;2023-02-21T10:39:40;97688.63;;;29.42;27.33
19596;BME280;9945;46.010;8.946;2023-02-21T10:42:17;97696.44;;;28.46;28.20
19596;BME280;9945;46.010;8.946;2023-02-21T10:44:48;97696.72;;;29.74;27.16
19596;BME280;9945;46.010;8.946;2023-02-21T10:47:18;97687.84;;;29.20;26.65
19596;BME280;9945;46.010;8.946;2023-02-21T10:49:55;97687.41;;;27.80;28.30
19596;BME280;9945;46.010;8.946;2023-02-21T10:52:25;97683.91;;;27.63;28.73
19596;BME280;9945;46.010;8.946;2023-02-21T10:55:00;97684.91;;;28.12;28.51
19596;BME280;9945;46.010;8.946;2023-02-21T10:57:31;97685.25;;;27.32;29.87
19596;BME280;9945;46.010;8.946;2023-02-21T10:59:59;97684.75;;;28.02;28.17
19596;BME280;9945;46.010;8.946;2023-02-21T11:02:36;97673.63;;;27.60;28.62
19596;BME280;9945;46.010;8.946;2023-02-21T11:05:10;97685.25;;;27.49;29.53
19596;BME280;9945;46.010;8.946;2023-02-21T11:07:38;97676.25;;;27.55;28.83
19596;BME280;9945;46.010;8.946;2023-02-21T11:10:27;97673.81;;;28.09;28.06
19596;BME280;9945;46.010;8.946;2023-02-21T11:13:05;97666.56;;;27.54;28.87
19596;BME280;9945;46.010;8.946;2023-02-21T11:15:32;97665.13;;;27.52;28.51
19596;BME280;9945;46.010;8.946;2023-02-21T11:18:06;97664.91;;;28.69;26.97
19596;BME280;9945;46.010;8.946;2023-02-21T11:20:37;97661.78;;;29.30;25.97
19596;BME280;9945;46.010;8.946;2023-02-21T11:23:04;97656.50;;;29.78;26.19
19596;BME280;9945;46.010;8.946;2023-02-21T11:25:43;97654.41;;;30.32;25.32
19596;BME280;9945;46.010;8.946;2023-02-21T11:28:19;97653.09;;;30.39;25.44
19596;BME280;9945;46.010;8.946;2023-02-21T11:30:49;97653.91;;;31.48;23.90
19596;BME280;9945;46.010;8.946;2023-02-21T11:33:29;97646.81;;;32.08;22.89
19596;BME280;9945;46.010;8.946;2023-02-21T11:36:08;97644.31;;;30.79;24.75
19596;BME280;9945;46.010;8.946;2023-02-21T11:38:37;97640.09;;;31.59;23.69
19596;BME280;9945;46.010;8.946;2023-02-21T11:41:15;97642.13;;;32.93;22.54
19596;BME280;9945;46.010;8.946;2023-02-21T11:43:46;97626.19;;;32.17;22.43
19596;BME280;9945;46.010;8.946;2023-02-21T11:46:17;97621.41;;;31.88;23.18
19596;BME280;9945;46.010;8.946;2023-02-21T11:48:54;97615.50;;;33.97;21.87
19596;BME280;9945;46.010;8.946;2023-02-21T11:51:32;97605.34;;;35.44;20.48
19596;BME280;9945;46.010;8.946;2023-02-21T11:54:01;97603.44;;;36.18;19.16
19596;BME280;9945;46.010;8.946;2023-02-21T11:56:43;97596.97;;;36.55;18.69
19596;BME280;9945;46.010;8.946;2023-02-21T12:02:38;97588.19;;;36.94;18.48
19596;BME280;9945;46.010;8.946;2023-02-21T12:05:17;97583.75;;;37.20;18.16
19596;BME280;9945;46.010;8.946;2023-02-21T12:07:53;97577.16;;;38.05;17.98
19596;BME280;9945;46.010;8.946;2023-02-21T12:10:36;97575.28;;;38.23;17.39
19596;BME280;9945;46.010;8.946;2023-02-21T12:13:14;97557.91;;;36.32;18.31
19596;BME280;9945;46.010;8.946;2023-02-21T12:15:55;97556.25;;;37.17;18.19
19596;BME280;9945;46.010;8.946;2023-02-21T12:18:41;97557.59;;;38.29;17.46
19596;BME280;9945;46.010;8.946;2023-02-21T12:21:34;97560.28;;;38.94;16.96
19596;BME280;9945;46.010;8.946;2023-02-21T12:24:16;97565.91;;;39.07;16.31
19596;BME280;9945;46.010;8.946;2023-02-21T12:26:51;97546.38;;;38.74;16.95
19596;BME280;9945;46.010;8.946;2023-02-21T12:29:30;97545.25;;;38.66;16.70
19596;BME280;9945;46.010;8.946;2023-02-21T12:32:32;97536.94;;;39.61;16.26
19596;BME280;9945;46.010;8.946;2023-02-21T12:38:13;97542.53;;;38.83;17.01
19596;BME280;9945;46.010;8.946;2023-02-21T12:40:53;97533.16;;;37.23;17.75
19596;BME280;9945;46.010;8.946;2023-02-21T12:43:33;97531.16;;;38.07;17.29
19596;BME280;9945;46.010;8.946;2023-02-21T12:46:12;97526.16;;;37.39;17.62
19596;BME280;9945;46.010;8.946;2023-02-21T12:48:46;97523.13;;;38.11;17.33
19596;BME280;9945;46.010;8.946;2023-02-21T12:51:21;97528.78;;;38.49;16.94
19596;BME280;9945;46.010;8.946;2023-02-21T12:53:55;97516.69;;;38.33;16.60
19596;BME280;9945;46.010;8.946;2023-02-21T12:56:27;97513.88;;;37.98;17.25
19596;BME280;9945;46.010;8.946;2023-02-21T12:59:02;97514.97;;;37.97;17.14
19596;BME280;9945;46.010;8.946;2023-02-21T13:01:32;97510.13;;;37.94;17.21
19596;BME280;9945;46.010;8.946;2023-02-21T13:04:14;97501.00;;;37.99;17.02
19596;BME280;9945;46.010;8.946;2023-02-21T13:06:48;97497.22;;;38.34;16.62
19596;BME280;9945;46.010;8.946;2023-02-21T13:09:23;97497.03;;;38.22;16.70
19596;BME280;9945;46.010;8.946;2023-02-21T13:11:56;97486.25;;;34.98;19.37
19596;BME280;9945;46.010;8.946;2023-02-21T13:14:29;97473.31;;;36.54;17.91
19596;BME280;9945;46.010;8.946;2023-02-21T13:16:57;97478.91;;;36.94;17.88
19596;BME280;9945;46.010;8.946;2023-02-21T13:19:30;97476.59;;;37.09;17.50
19596;BME280;9945;46.010;8.946;2023-02-21T13:25:14;97473.53;;;37.25;17.33
19596;BME280;9945;46.010;8.946;2023-02-21T13:27:55;97461.50;;;36.09;18.23
19596;BME280;9945;46.010;8.946;2023-02-21T13:30:33;97452.41;;;36.94;17.83
19596;BME280;9945;46.010;8.946;2023-02-21T13:33:03;97456.25;;;35.31;18.73
19596;BME280;9945;46.010;8.946;2023-02-21T13:35:34;97448.63;;;34.68;19.37
19596;BME280;9945;46.010;8.946;2023-02-21T13:38:04;97441.47;;;35.78;18.94
19596;BME280;9945;46.010;8.946;2023-02-21T13:40:35;97445.97;;;36.90;17.90
19596;BME280;9945;46.010;8.946;2023-02-21T13:43:10;97441.34;;;35.96;18.77
19596;BME280;9945;46.010;8.946;2023-02-21T13:45:39;97431.25;;;36.33;18.40
19596;BME280;9945;46.010;8.946;2023-02-21T13:48:25;97434.53;;;35.12;19.56
19596;BME280;9945;46.010;8.946;2023-02-21T13:50:55;97424.63;;;34.18;19.86
19596;BME280;9945;46.010;8.946;2023-02-21T13:53:23;97426.91;;;35.55;19.30
19596;BME280;9945;46.010;8.946;2023-02-21T13:56:40;97429.69;;;33.11;21.33
19596;BME280;9945;46.010;8.946;2023-02-21T13:59:29;97420.63;;;32.29;21.68
19596;BME280;9945;46.010;8.946;2023-02-21T14:02:17;97421.44;;;30.96;23.49
19596;BME280;9945;46.010;8.946;2023-02-21T14:05:06;97416.50;;;31.23;23.30